This is the latest recevied weather packets stored in our database for station/object IK4PKL-13. If no packets are shown the sender has not sent any weather packets the latest 10 day(s).
| Time | Temp. | Humidity | Pressure | Rain* | Wind** | Luminosity | Snow |
|---|---|---|---|---|---|---|---|
| 1777341921 | 12.78° C | 90% | 1018.7 hPa | 0 mm | - | 0 W/m² | - |
| 1777340737 | 12.78° C | 90% | 1018.7 hPa | 0 mm | - | 0 W/m² | - |
| 1777339541 | 13.33° C | 89% | 1018.8 hPa | 0 mm | - | 0 W/m² | - |
| 1777337765 | 13.33° C | 89% | 1018.9 hPa | 0 mm | - | 0 W/m² | - |
| 1777334128 | 13.89° C | 88% | 1019.1 hPa | 0 mm | - | 0 W/m² | - |
| 1777329926 | 14.44° C | 87% | 1019.2 hPa | 0 mm | - | 0 W/m² | - |
| 1777327520 | 15° C | 86% | 1019 hPa | 0 mm | - | 0 W/m² | - |
| 1777326336 | 15° C | 86% | 1019.2 hPa | 0 mm | - | 0 W/m² | - |
| 1777323957 | 16.11° C | 84% | 1019.1 hPa | 0 mm | - | 0 W/m² | - |
| 1777319120 | 17.78° C | 83% | 1019.3 hPa | 0 mm | - | 0 W/m² | - |
| 1777318546 | 18.33° C | 82% | 1019.3 hPa | 0 mm | - | 0 W/m² | - |
| 1777313728 | 20° C | 74% | 1018.8 hPa | 0 mm | - | 2 W/m² | - |
| 1777291537 | 22.22° C | 60% | 1020.8 hPa | 0 mm | - | 86 W/m² | - |
| 1777283120 | 20.56° C | 71% | 1021.7 hPa | 0 mm | - | 606 W/m² | - |
| 1777281937 | 20° C | 73% | 1021.8 hPa | 0 mm | - | 578 W/m² | - |
| 1777278944 | 20° C | 75% | 1022.1 hPa | 0 mm | - | 286 W/m² | - |
| 1777278356 | 20.56° C | 75% | 1022 hPa | 0 mm | - | 468 W/m² | - |
| 1777277137 | 20.56° C | 68% | 1021.9 hPa | 0 mm | - | 92 W/m² | - |
| 1777276528 | 20.56° C | 69% | 1021.8 hPa | 0 mm | - | 160 W/m² | - |
| 1777272944 | 18.89° C | 71% | 1021.9 hPa | 0 mm | - | 257 W/m² | - |
| 1777272336 | 18.33° C | 69% | 1021.9 hPa | 0 mm | - | 232 W/m² | - |
| 1777269936 | 16.67° C | 71% | 1021.8 hPa | 0 mm | - | 143 W/m² | - |
| 1777269330 | 16.11° C | 74% | 1021.8 hPa | 0 mm | - | 121 W/m² | - |
| 1777261521 | 12.78° C | 86% | 1020.7 hPa | 0 mm | - | 0 W/m² | - |
| 1777260336 | 12.78° C | 87% | 1020.7 hPa | 0 mm | - | 0 W/m² | - |
* Rain latest hour (hover to see other rain measurements)
** Current wind speed in m/s (hover to see current wind gust speed)